createdAt,value
2023-04-24T00:04:20.171Z,21.17
2023-04-24T00:09:23.529Z,21.77
2023-04-24T00:14:26.720Z,23.20
2023-04-24T00:19:30.376Z,22.50
2023-04-24T00:24:33.625Z,24.50
2023-04-24T00:29:37.039Z,23.83
2023-04-24T00:34:40.598Z,21.67
2023-04-24T00:39:44.184Z,25.43
2023-04-24T00:44:48.012Z,26.40
2023-04-24T00:49:51.340Z,22.87
2023-04-24T00:54:54.891Z,23.27
2023-04-24T00:59:58.359Z,26.10
2023-04-24T01:05:02.887Z,23.33
2023-04-24T01:10:07.238Z,22.00
2023-04-24T01:15:11.220Z,23.57
2023-04-24T01:20:15.978Z,22.50
2023-04-24T01:25:19.466Z,23.87
2023-04-24T01:30:23.009Z,21.20
2023-04-24T01:35:26.648Z,22.87
2023-04-24T01:40:30.164Z,20.93
2023-04-24T01:45:33.404Z,24.23
2023-04-24T01:50:37.010Z,26.47
2023-04-24T01:55:40.597Z,21.67
2023-04-24T02:00:43.847Z,25.07
2023-04-24T02:05:47.079Z,25.33
2023-04-24T02:10:50.794Z,24.20
2023-04-24T02:15:54.035Z,24.33
2023-04-24T02:20:57.272Z,21.83
2023-04-24T02:26:00.380Z,21.50
2023-04-24T02:31:03.570Z,22.17
2023-04-24T02:36:06.844Z,24.97
2023-04-24T02:41:10.281Z,23.10
2023-04-24T02:46:13.551Z,23.87
2023-04-24T02:51:16.897Z,23.27
2023-04-24T02:56:20.233Z,29.83
2023-04-24T03:01:23.295Z,28.47
2023-04-24T03:06:28.451Z,28.63
2023-04-24T03:11:31.652Z,30.20
2023-04-24T03:16:34.955Z,25.33
2023-04-24T03:21:41.980Z,28.80
2023-04-24T03:26:45.627Z,27.63
2023-04-24T03:31:48.871Z,30.67
2023-04-24T03:36:52.172Z,27.97
2023-04-24T03:41:55.347Z,25.83
2023-04-24T03:46:59.934Z,28.33
2023-04-24T03:52:03.491Z,26.23
2023-04-24T03:57:07.214Z,25.87
2023-04-24T04:02:10.586Z,31.53
2023-04-24T04:07:14.780Z,24.43
2023-04-24T04:12:18.065Z,24.00
2023-04-24T04:17:21.314Z,24.67
2023-04-24T04:22:24.569Z,27.93
2023-04-24T04:27:28.045Z,39.33
2023-04-24T04:32:31.776Z,25.87
2023-04-24T04:37:35.219Z,26.63
2023-04-24T04:42:41.604Z,28.83
2023-04-24T04:47:45.756Z,29.13
2023-04-24T04:52:49.086Z,34.23
2023-04-24T04:57:53.207Z,27.37
2023-04-24T05:03:01.038Z,27.87
2023-04-24T05:08:25.828Z,29.20
2023-04-24T05:13:39.126Z,26.60
2023-04-24T05:18:44.420Z,25.27
2023-04-24T05:23:47.830Z,29.73
2023-04-24T05:28:51.345Z,28.73
2023-04-24T05:33:54.707Z,25.83
2023-04-24T05:38:57.962Z,32.53
2023-04-24T05:44:01.400Z,26.50
2023-04-24T05:49:04.958Z,29.03
2023-04-24T05:54:08.653Z,27.73
2023-04-24T05:59:12.095Z,24.23
2023-04-24T06:04:15.441Z,25.77
2023-04-24T06:09:19.430Z,26.00
2023-04-24T06:14:22.836Z,22.30
2023-04-24T06:19:26.079Z,22.43
2023-04-24T06:24:30.307Z,20.03
2023-04-24T06:29:34.778Z,17.10
2023-04-24T06:34:38.041Z,19.30
2023-04-24T06:39:41.419Z,19.40
2023-04-24T06:44:45.818Z,18.43
2023-04-24T06:49:49.040Z,21.03
2023-04-24T06:54:52.318Z,22.90
2023-04-24T06:59:55.670Z,16.33
2023-04-24T07:04:58.637Z,20.07
2023-04-24T07:10:02.024Z,16.40
2023-04-24T07:15:06.452Z,20.30
2023-04-24T07:20:11.674Z,16.87
2023-04-24T07:25:15.328Z,14.27
2023-04-24T07:30:18.726Z,15.40
2023-04-24T07:35:22.055Z,14.10
2023-04-24T07:40:25.335Z,11.88
2023-04-24T07:45:29.518Z,11.52
2023-04-24T07:50:33.286Z,10.82
2023-04-24T07:55:36.588Z,13.23
2023-04-24T08:00:39.790Z,12.70
2023-04-24T08:05:44.216Z,12.60
2023-04-24T08:10:47.347Z,10.93
2023-04-24T08:15:50.655Z,9.82
2023-04-24T08:20:53.964Z,11.82
2023-04-24T08:26:00.046Z,9.05
2023-04-24T08:31:07.398Z,12.75
2023-04-24T08:36:10.928Z,12.00
2023-04-24T08:41:17.364Z,10.13
2023-04-24T08:46:22.193Z,11.55
2023-04-24T08:51:27.839Z,12.27
2023-04-24T08:56:34.549Z,10.25
2023-04-24T09:01:41.054Z,11.75
2023-04-24T09:06:44.783Z,10.38
2023-04-24T09:11:50.483Z,9.63
2023-04-24T09:16:53.848Z,8.85
2023-04-24T09:21:58.437Z,11.68
2023-04-24T09:27:05.368Z,9.63
2023-04-24T09:32:27.226Z,8.25
2023-04-24T09:37:31.605Z,7.88
2023-04-24T09:42:35.054Z,9.20
2023-04-24T09:47:42.266Z,9.98
2023-04-24T09:52:57.457Z,9.43
2023-04-24T09:58:02.139Z,8.23
2023-04-24T10:03:07.405Z,7.85
2023-04-24T10:08:12.960Z,10.10
2023-04-24T10:13:17.087Z,7.05
2023-04-24T10:18:23.048Z,6.88
2023-04-24T10:23:27.328Z,8.15
2023-04-24T10:28:33.489Z,8.18
2023-04-24T10:33:37.495Z,7.88
2023-04-24T10:38:43.336Z,7.35
2023-04-24T10:43:47.227Z,8.93
2023-04-24T10:48:56.209Z,8.80
2023-04-24T10:53:59.628Z,9.90
2023-04-24T10:59:03.750Z,9.20
2023-04-24T11:04:07.118Z,8.93
2023-04-24T11:09:14.033Z,10.57
2023-04-24T11:14:17.819Z,13.25
2023-04-24T11:19:25.187Z,8.25
2023-04-24T11:24:41.391Z,8.25
2023-04-24T11:29:58.143Z,11.82
2023-04-24T11:35:16.571Z,9.15
2023-04-24T11:40:24.575Z,14.25
2023-04-24T11:45:30.017Z,10.60
2023-04-24T11:50:33.257Z,12.02
2023-04-24T11:55:36.562Z,11.80
2023-04-24T12:00:39.982Z,10.50
2023-04-24T12:05:43.683Z,10.00
2023-04-24T12:10:53.184Z,9.38
2023-04-24T12:15:57.154Z,12.07
2023-04-24T12:21:23.255Z,9.63
2023-04-24T12:26:27.115Z,13.65
2023-04-24T12:31:31.635Z,13.70
2023-04-24T12:36:37.193Z,10.80
2023-04-24T12:41:58.482Z,12.02
2023-04-24T12:47:03.115Z,14.55
2023-04-24T12:52:06.393Z,14.85
2023-04-24T12:57:09.483Z,12.13
2023-04-24T13:02:13.169Z,11.73
2023-04-24T13:07:16.981Z,10.90
2023-04-24T13:12:21.331Z,9.15
2023-04-24T13:17:24.965Z,9.07
2023-04-24T13:22:28.664Z,7.75
2023-04-24T13:27:31.926Z,8.93
2023-04-24T13:32:36.778Z,8.68
2023-04-24T13:37:40.009Z,9.35
2023-04-24T13:42:44.275Z,11.38
2023-04-24T13:47:47.367Z,8.30
2023-04-24T13:52:50.798Z,9.68
2023-04-24T13:57:56.329Z,9.85
2023-04-24T14:02:59.772Z,7.47
2023-04-24T14:08:03.504Z,8.38
2023-04-24T14:13:07.062Z,12.95
2023-04-24T14:18:10.224Z,9.77
2023-04-24T14:23:13.551Z,14.15
2023-04-24T14:28:18.777Z,10.27
2023-04-24T14:33:26.045Z,8.20
2023-04-24T14:38:29.210Z,10.95
2023-04-24T14:43:32.460Z,7.70
2023-04-24T14:48:36.225Z,10.85
2023-04-24T14:53:39.993Z,5.03
2023-04-24T14:58:43.615Z,5.45
2023-04-24T15:03:52.994Z,6.03
2023-04-24T15:08:58.361Z,7.15
2023-04-24T15:14:01.553Z,7.78
2023-04-24T15:19:04.702Z,4.95
2023-04-24T15:24:08.117Z,5.55
2023-04-24T15:29:11.327Z,6.53
2023-04-24T15:34:14.716Z,5.57
2023-04-24T15:39:17.992Z,7.25
2023-04-24T15:44:22.698Z,5.22
2023-04-24T15:49:27.123Z,6.28
2023-04-24T15:54:30.452Z,5.75
2023-04-24T15:59:34.128Z,7.93
2023-04-24T16:04:37.449Z,6.10
2023-04-24T16:09:41.957Z,4.32
2023-04-24T16:14:45.706Z,7.45
2023-04-24T16:19:49.266Z,10.48
2023-04-24T16:24:52.644Z,4.97
2023-04-24T16:29:57.365Z,5.32
2023-04-24T16:35:00.649Z,6.40
2023-04-24T16:40:07.267Z,4.43
2023-04-24T16:45:10.822Z,7.68
2023-04-24T16:50:14.132Z,4.40
2023-04-24T16:55:18.458Z,5.50
2023-04-24T17:00:22.437Z,5.93
2023-04-24T17:05:27.217Z,7.63
2023-04-24T17:10:30.637Z,4.43
2023-04-24T17:15:36.419Z,3.97
2023-04-24T17:20:43.883Z,6.53
2023-04-24T17:25:48.937Z,4.55
2023-04-24T17:30:59.321Z,11.87
2023-04-24T17:36:05.230Z,7.13
2023-04-24T17:41:17.581Z,5.50
2023-04-24T17:46:22.864Z,6.93
2023-04-24T17:51:28.073Z,5.80
2023-04-24T17:56:32.258Z,7.53
2023-04-24T18:01:36.887Z,4.60
2023-04-24T18:06:41.581Z,7.93
2023-04-24T18:11:48.806Z,7.27
2023-04-24T18:16:55.941Z,4.63
2023-04-24T18:22:02.920Z,4.33
2023-04-24T18:27:07.516Z,4.77
2023-04-24T18:32:13.189Z,8.90
2023-04-24T18:37:18.215Z,6.23
2023-04-24T18:42:25.856Z,9.10
2023-04-24T18:47:34.380Z,4.37
2023-04-24T18:52:39.892Z,8.63
2023-04-24T18:57:44.888Z,14.13
2023-04-24T19:02:49.926Z,10.47
2023-04-24T19:07:56.836Z,12.13
2023-04-24T19:13:03.158Z,8.33
2023-04-24T19:18:08.520Z,9.10
2023-04-24T19:23:12.715Z,10.20
2023-04-24T19:28:17.278Z,16.17
2023-04-24T19:33:26.905Z,18.37
2023-04-24T19:38:37.186Z,15.63
2023-04-24T19:43:44.169Z,17.53
2023-04-24T19:48:49.548Z,14.50
2023-04-24T19:53:55.976Z,13.13
2023-04-24T19:59:02.407Z,11.90
2023-04-24T20:04:10.838Z,12.97
2023-04-24T20:09:15.803Z,19.50
2023-04-24T20:14:23.512Z,15.90
2023-04-24T20:19:27.294Z,16.33
2023-04-24T20:24:31.635Z,14.77
2023-04-24T20:29:36.486Z,12.97
2023-04-24T20:34:40.513Z,14.23
2023-04-24T20:39:45.189Z,14.33
2023-04-24T20:44:49.353Z,17.00
2023-04-24T20:49:52.767Z,16.83
2023-04-24T20:54:56.121Z,18.93
2023-04-24T20:59:59.258Z,14.87
2023-04-24T21:05:02.755Z,15.33
2023-04-24T21:10:06.405Z,11.20
2023-04-24T21:15:10.304Z,11.70
2023-04-24T21:20:14.350Z,12.23
2023-04-24T21:25:17.693Z,9.57
2023-04-24T21:30:22.541Z,10.17
2023-04-24T21:35:25.798Z,8.30
2023-04-24T21:40:29.015Z,9.30
2023-04-24T21:45:32.445Z,10.00
2023-04-24T21:50:35.692Z,8.83
2023-04-24T21:55:38.919Z,10.20
2023-04-24T22:00:42.112Z,9.37
2023-04-24T22:05:45.343Z,11.07
2023-04-24T22:10:48.910Z,8.50
2023-04-24T22:15:52.193Z,8.87
2023-04-24T22:20:55.522Z,10.73
2023-04-24T22:25:58.903Z,9.10
2023-04-24T22:31:02.380Z,8.80
2023-04-24T22:36:06.186Z,10.17
2023-04-24T22:41:09.300Z,11.37
2023-04-24T22:46:12.836Z,9.90
2023-04-24T22:51:16.740Z,9.23
2023-04-24T22:56:20.085Z,7.50
2023-04-24T23:01:23.412Z,7.70
2023-04-24T23:06:27.300Z,4.60
2023-04-24T23:11:30.936Z,5.70
2023-04-24T23:16:38.012Z,5.73
2023-04-24T23:21:42.114Z,6.70
2023-04-24T23:26:45.773Z,6.37
2023-04-24T23:31:50.130Z,8.70
2023-04-24T23:36:53.716Z,6.80
2023-04-24T23:41:57.326Z,5.90
2023-04-24T23:47:00.502Z,5.73
2023-04-24T23:52:04.228Z,5.77
2023-04-24T23:57:07.737Z,4.50
